Time;durP1;ratioP1;P1;durP2;ratioP2;P2;SDS_P1;SDS_P2;PMS_P1;PMS_P2;Temp;Humidity;BMP_temperature;BMP_pressure;BME280_temperature;BME280_humidity;BME280_pressure;Samples;Min_cycle;Max_cycle;Signal;HPM_P1;HPM_P2
2021/01/08 00:08:42;;;;;;;54.45;20.35;;;0.40;99.90;;;;;;21052974;28;20017;-76
2021/01/08 00:18:47;;;;;;;50.22;20.33;;;0.50;99.90;;;;;;21052779;28;20091;-77
2021/01/08 00:28:50;;;;;;;58.20;21.75;;;0.40;99.90;;;;;;21033278;28;20529;-77
2021/01/08 00:38:51;;;;;;;51.88;20.13;;;0.40;99.90;;;;;;21052256;28;20031;-78
2021/01/08 00:48:57;;;;;;;49.72;20.63;;;0.40;99.90;;;;;;21054516;28;20020;-77
2021/01/08 00:58:58;;;;;;;49.78;19.83;;;0.40;99.90;;;;;;21043961;28;20115;-76
2021/01/08 01:09:04;;;;;;;48.42;19.45;;;0.40;99.90;;;;;;21044490;28;20051;-77
2021/01/08 01:19:05;;;;;;;48.47;20.63;;;0.40;99.90;;;;;;21047955;28;20115;-77
2021/01/08 01:29:09;;;;;;;52.33;20.88;;;0.40;99.90;;;;;;21059438;28;20031;-76
2021/01/08 01:39:09;;;;;;;56.33;20.67;;;0.40;99.90;;;;;;21076229;28;20107;-77
2021/01/08 01:49:13;;;;;;;54.97;20.40;;;0.40;99.90;;;;;;21037324;28;20048;-77
2021/01/08 01:59:17;;;;;;;52.45;19.42;;;0.40;99.90;;;;;;21050381;28;20032;-79
2021/01/08 02:09:20;;;;;;;47.55;18.25;;;0.50;99.90;;;;;;21064182;28;20397;-77
2021/01/08 02:20:07;;;;;;;43.58;16.50;;;0.40;99.90;;;;;;21012349;28;20072;-76
2021/01/08 02:30:09;;;;;;;48.88;18.60;;;0.40;99.90;;;;;;21012889;28;20067;-75
2021/01/08 02:40:12;;;;;;;39.88;17.05;;;0.40;99.90;;;;;;21037833;28;20383;-76
2021/01/08 02:50:14;;;;;;;44.88;17.95;;;0.40;99.90;;;;;;21041561;28;20471;-76
2021/01/08 03:00:16;;;;;;;44.05;17.10;;;0.40;99.90;;;;;;21031303;28;20039;-77
2021/01/08 03:10:17;;;;;;;43.15;16.67;;;0.40;99.90;;;;;;21079554;28;20054;-77
2021/01/08 03:20:18;;;;;;;41.60;16.20;;;0.30;99.90;;;;;;21078042;28;20024;-76
2021/01/08 03:30:19;;;;;;;36.75;15.50;;;0.40;99.90;;;;;;21072994;28;20127;-77
2021/01/08 03:40:20;;;;;;;42.92;15.45;;;0.40;99.90;;;;;;21004860;28;20024;-77
2021/01/08 03:50:21;;;;;;;37.67;16.02;;;0.30;99.90;;;;;;21005624;28;20063;-78
2021/01/08 04:00:22;;;;;;;38.30;15.48;;;0.30;99.90;;;;;;21032781;28;20443;-76
2021/01/08 04:10:23;;;;;;;37.55;15.27;;;0.20;99.90;;;;;;20991640;28;20476;-76
2021/01/08 04:20:24;;;;;;;40.03;15.80;;;0.10;99.90;;;;;;20989911;28;20025;-77
2021/01/08 04:30:24;;;;;;;31.70;12.27;;;0.00;99.90;;;;;;21003162;28;20108;-77
2021/01/08 04:40:25;;;;;;;31.88;12.85;;;0.00;99.90;;;;;;20986500;28;20115;-76
2021/01/08 04:50:27;;;;;;;30.45;11.40;;;-0.20;99.90;;;;;;21002706;28;20055;-76
2021/01/08 05:00:27;;;;;;;21.65;9.52;;;-0.20;99.90;;;;;;21001777;28;20044;-77
2021/01/08 05:10:28;;;;;;;23.70;7.95;;;-0.20;99.90;;;;;;21001887;28;20541;-77
2021/01/08 05:20:29;;;;;;;17.05;8.23;;;-0.20;99.90;;;;;;21001394;28;20021;-72
2021/01/08 05:30:30;;;;;;;16.33;7.65;;;0.00;99.90;;;;;;20999749;28;20483;-75
2021/01/08 05:40:32;;;;;;;18.05;7.80;;;-0.10;99.90;;;;;;20999622;28;20025;-77
2021/01/08 05:50:34;;;;;;;15.80;8.25;;;0.00;99.90;;;;;;20998142;28;20028;-77
2021/01/08 06:00:34;;;;;;;24.33;9.10;;;-0.10;99.90;;;;;;20998183;28;20024;-76
2021/01/08 06:10:37;;;;;;;20.88;9.15;;;-0.10;99.90;;;;;;20995480;28;20040;-75
2021/01/08 06:20:38;;;;;;;32.40;11.82;;;-0.10;99.90;;;;;;20997695;28;20442;-76
2021/01/08 06:30:42;;;;;;;22.55;10.52;;;-0.10;99.90;;;;;;20994843;28;20517;-77
2021/01/08 06:40:49;;;;;;;21.95;10.45;;;-0.20;99.90;;;;;;20998373;28;20513;-77
2021/01/08 06:50:57;;;;;;;23.23;10.65;;;-0.30;99.90;;;;;;20989081;28;20040;-77
2021/01/08 07:01:01;;;;;;;26.88;11.35;;;0.00;99.90;;;;;;20989509;28;20078;-77
2021/01/08 07:11:02;;;;;;;27.65;11.70;;;-0.20;99.90;;;;;;20992129;28;20036;-77
2021/01/08 07:21:03;;;;;;;23.73;10.60;;;-0.20;99.90;;;;;;20991566;28;20036;-77
2021/01/08 07:31:10;;;;;;;23.92;10.82;;;-0.30;99.90;;;;;;20973424;28;20032;-77
2021/01/08 07:41:11;;;;;;;58.28;21.95;;;-0.30;99.90;;;;;;20990179;28;20033;-78
2021/01/08 07:51:13;;;;;;;26.52;11.63;;;-0.30;99.90;;;;;;20988767;28;20106;-78
2021/01/08 08:01:15;;;;;;;27.48;12.05;;;-0.30;99.90;;;;;;21009142;28;20032;-80
2021/01/08 08:11:19;;;;;;;27.35;11.25;;;-0.30;99.90;;;;;;20999762;28;20037;-80
2021/01/08 08:21:20;;;;;;;26.85;11.25;;;-0.20;99.90;;;;;;21013888;28;20028;-81
2021/01/08 08:31:21;;;;;;;26.15;11.57;;;0.00;99.90;;;;;;21014572;28;20025;-78
2021/01/08 08:41:22;;;;;;;26.92;12.23;;;-0.10;99.90;;;;;;20995088;28;20051;-80
2021/01/08 08:51:24;;;;;;;21.50;11.23;;;0.10;99.90;;;;;;21016279;28;20024;-80
2021/01/08 09:01:38;;;;;;;26.35;11.35;;;0.40;99.90;;;;;;21022887;28;20024;-78
2021/01/08 09:12:05;;;;;;;26.02;10.98;;;0.60;99.90;;;;;;21051293;28;20052;-80
2021/01/08 09:22:08;;;;;;;21.67;10.35;;;0.70;99.90;;;;;;20994364;28;20074;-79
2021/01/08 09:32:09;;;;;;;28.23;12.18;;;0.90;99.90;;;;;;21015234;28;20029;-81
2021/01/08 09:42:11;;;;;;;28.85;10.60;;;0.80;99.90;;;;;;21031330;28;20037;-78
2021/01/08 09:52:13;;;;;;;27.60;10.85;;;0.80;99.90;;;;;;21007184;28;20388;-74
2021/01/08 10:02:13;;;;;;;27.08;11.32;;;0.90;99.90;;;;;;21007722;28;20040;-80
2021/01/08 10:12:16;;;;;;;;;;;1.30;99.90;;;;;;21007778;28;20028;-80
2021/01/08 10:22:20;;;;;;;34.40;14.02;;;1.20;99.90;;;;;;20989477;28;19919;-78
2021/01/08 10:32:21;;;;;;;29.70;10.68;;;1.10;99.90;;;;;;20994180;28;20036;-78
2021/01/08 10:42:22;;;;;;;26.45;12.55;;;1.00;99.90;;;;;;21024451;28;20028;-77
2021/01/08 10:52:23;;;;;;;24.08;10.75;;;1.10;99.90;;;;;;21021661;28;20052;-81
2021/01/08 11:02:23;;;;;;;25.20;11.32;;;1.10;99.90;;;;;;21074352;28;20035;-79
2021/01/08 11:12:24;;;;;;;;;;;1.10;99.90;;;;;;21072600;28;20561;-79
2021/01/08 11:22:26;;;;;;;22.75;10.25;;;1.50;99.90;;;;;;21069143;28;20642;-77
2021/01/08 11:32:27;;;;;;;29.38;11.65;;;1.50;99.90;;;;;;21086729;28;20032;-78
2021/01/08 11:42:34;;;;;;;;;;;1.60;99.90;;;;;;21098593;28;20453;-78
2021/01/08 11:52:34;;;;;;;24.33;11.23;;;1.80;99.90;;;;;;21090464;28;19935;-76
2021/01/08 12:02:35;;;;;;;;;;;1.90;99.90;;;;;;21047134;28;20032;-77
2021/01/08 12:12:36;;;;;;;18.25;9.02;;;1.80;99.90;;;;;;21059113;28;19916;-81
2021/01/08 12:22:37;;;;;;;;;;;1.90;99.90;;;;;;21018173;28;20032;-79
2021/01/08 12:32:38;;;;;;;20.75;9.20;;;2.10;99.90;;;;;;21043934;28;19912;-79
2021/01/08 12:42:40;;;;;;;;;;;2.10;99.90;;;;;;21021740;28;20028;-77
2021/01/08 12:52:41;;;;;;;16.10;7.78;;;2.10;99.90;;;;;;21096551;28;19912;-79
2021/01/08 13:02:42;;;;;;;18.10;7.53;;;2.30;99.90;;;;;;21099020;28;20355;-80
2021/01/08 13:12:43;;;;;;;15.23;7.35;;;2.50;99.90;;;;;;21097400;28;20028;-81
2021/01/08 13:22:44;;;;;;;40.67;15.70;;;2.90;99.90;;;;;;21099030;28;20039;-82
2021/01/08 13:32:44;;;;;;;90.17;36.73;;;3.50;99.90;;;;;;21099590;28;20098;-79
2021/01/08 13:42:45;;;;;;;27.90;13.23;;;3.00;99.90;;;;;;21081892;28;20032;-81
2021/01/08 13:52:46;;;;;;;12.27;6.57;;;2.90;99.90;;;;;;21097398;28;20394;-78
2021/01/08 14:02:47;;;;;;;14.17;6.67;;;2.70;99.90;;;;;;21083480;28;20028;-76
2021/01/08 14:12:48;;;;;;;14.63;6.40;;;2.60;99.90;;;;;;21081154;28;20072;-78
2021/01/08 14:22:48;;;;;;;11.93;5.30;;;4.70;99.90;;;;;;21080335;28;20453;-78
2021/01/08 14:32:49;;;;;;;13.70;7.00;;;5.40;99.90;;;;;;21057233;28;20036;-77
2021/01/08 14:42:50;;;;;;;16.03;7.90;;;4.80;99.90;;;;;;21076856;28;20306;-77
2021/01/08 14:52:51;;;;;;;19.57;8.40;;;4.00;99.90;;;;;;21056770;28;20028;-78
2021/01/08 15:02:52;;;;;;;13.40;6.63;;;4.50;99.90;;;;;;21013919;28;20481;-79
2021/01/08 15:12:54;;;;;;;14.37;7.70;;;4.80;99.90;;;;;;21032001;28;20020;-78
2021/01/08 15:22:56;;;;;;;17.02;7.57;;;4.40;99.90;;;;;;20990631;28;20109;-78
2021/01/08 15:32:57;;;;;;;18.77;8.55;;;3.10;99.90;;;;;;20990085;28;20090;-78
2021/01/08 15:42:58;;;;;;;18.93;8.57;;;2.40;99.90;;;;;;21027156;28;20032;-79
2021/01/08 15:52:59;;;;;;;13.93;7.57;;;2.10;99.90;;;;;;20989919;28;20709;-78
2021/01/08 16:03:00;;;;;;;19.37;7.90;;;2.20;99.90;;;;;;21021749;28;20032;-76
2021/01/08 16:13:01;;;;;;;17.83;9.03;;;2.20;99.90;;;;;;21066336;28;20036;-78
2021/01/08 16:23:01;;;;;;;21.77;9.30;;;2.10;99.90;;;;;;21080757;28;20553;-77
2021/01/08 16:33:03;;;;;;;14.93;8.67;;;1.50;99.90;;;;;;21090254;28;20305;-78
2021/01/08 16:43:04;;;;;;;22.52;9.80;;;1.20;99.90;;;;;;21092511;28;20028;-77
2021/01/08 16:53:04;;;;;;;;;;;0.80;99.90;;;;;;21053981;28;20107;-77
2021/01/08 17:03:05;;;;;;;132.57;46.40;;;0.70;99.90;;;;;;21041232;28;19908;-77
2021/01/08 17:13:06;;;;;;;75.20;25.20;;;0.00;99.90;;;;;;21047204;28;20044;-78
2021/01/08 17:23:07;;;;;;;41.67;16.95;;;-0.40;99.90;;;;;;21015052;28;20642;-79
2021/01/08 17:33:08;;;;;;;37.22;13.25;;;-0.20;99.90;;;;;;21006647;28;20517;-77
2021/01/08 17:43:09;;;;;;;49.35;21.25;;;-0.40;99.90;;;;;;21085346;28;20094;-78
2021/01/08 17:53:09;;;;;;;27.83;12.25;;;-0.80;99.90;;;;;;21063284;28;20603;-77
2021/01/08 18:03:10;;;;;;;22.35;10.38;;;-1.00;99.90;;;;;;21068128;28;20062;-77
2021/01/08 18:13:11;;;;;;;57.58;28.33;;;-0.90;99.90;;;;;;21003332;28;20028;-78
2021/01/08 18:23:12;;;;;;;17.55;9.93;;;-1.10;99.90;;;;;;21051880;28;20028;-76
2021/01/08 18:33:13;;;;;;;25.40;11.65;;;-1.50;99.90;;;;;;21064319;28;20505;-76
2021/01/08 18:43:14;;;;;;;28.77;14.15;;;-1.10;99.90;;;;;;20996776;28;20024;-76
2021/01/08 18:53:15;;;;;;;18.10;7.20;;;-1.00;99.90;;;;;;21000472;28;20033;-78
2021/01/08 19:03:16;;;;;;;13.98;6.45;;;-1.80;99.90;;;;;;21068495;28;20027;-77
2021/01/08 19:13:16;;;;;;;14.82;6.88;;;-1.70;99.90;;;;;;21086988;28;20036;-75
2021/01/08 19:23:18;;;;;;;10.63;4.88;;;-1.80;99.90;;;;;;21078205;28;20491;-76
2021/01/08 19:33:19;;;;;;;8.57;4.30;;;-2.10;99.90;;;;;;21082528;28;20032;-77
2021/01/08 19:43:20;;;;;;;5.80;3.28;;;-2.00;99.90;;;;;;21080408;28;20651;-77
2021/01/08 19:53:21;;;;;;;10.90;4.43;;;-1.90;99.90;;;;;;21083261;28;20131;-78
2021/01/08 20:03:22;;;;;;;7.75;3.85;;;-2.20;99.90;;;;;;21082633;28;20029;-78
2021/01/08 20:13:23;;;;;;;7.75;3.60;;;-2.20;99.90;;;;;;21023942;28;20029;-77
2021/01/08 20:23:24;;;;;;;7.00;3.83;;;-2.20;99.90;;;;;;21009444;28;20025;-78
2021/01/08 20:33:25;;;;;;;12.18;5.80;;;-2.30;99.90;;;;;;21005875;28;20075;-77
2021/01/08 20:43:26;;;;;;;20.13;11.02;;;-2.20;99.90;;;;;;21023740;28;20037;-76
2021/01/08 20:53:27;;;;;;;25.02;11.63;;;-2.10;99.90;;;;;;21024252;28;20038;-77
2021/01/08 21:03:28;;;;;;;10.88;5.40;;;-2.10;99.90;;;;;;21090240;28;20067;-78
2021/01/08 21:13:28;;;;;;;12.25;6.18;;;-2.90;99.90;;;;;;21069657;28;20043;-76
2021/01/08 21:23:29;;;;;;;13.48;5.95;;;-3.10;99.90;;;;;;21125517;28;20059;-78
2021/01/08 21:33:32;;;;;;;7.55;4.25;;;-2.90;99.90;;;;;;21159494;28;20035;-77
2021/01/08 21:43:33;;;;;;;8.05;4.03;;;-2.80;99.90;;;;;;21085382;28;20388;-76
2021/01/08 21:53:33;;;;;;;9.65;4.47;;;-2.80;99.90;;;;;;21076605;28;20025;-77
2021/01/08 22:03:34;;;;;;;9.20;4.38;;;-3.20;99.90;;;;;;20987169;28;20038;-76
2021/01/08 22:13:35;;;;;;;66.70;20.30;;;-3.30;99.90;;;;;;21041574;28;20030;-76
2021/01/08 22:23:37;;;;;;;19.80;7.68;;;-3.10;99.90;;;;;;21025813;28;20028;-77
2021/01/08 22:33:39;;;;;;;7.05;4.13;;;-3.00;99.90;;;;;;21050005;28;20557;-78
2021/01/08 22:43:39;;;;;;;14.27;5.35;;;-3.00;99.90;;;;;;21130072;28;20748;-77
2021/01/08 22:53:40;;;;;;;10.30;4.53;;;-3.10;99.90;;;;;;20986560;28;20029;-76
2021/01/08 23:03:46;;;;;;;11.80;4.50;;;-3.60;99.90;;;;;;20973934;28;20036;-76
2021/01/08 23:13:47;;;;;;;8.75;4.30;;;-3.60;99.90;;;;;;20955237;28;20074;-77
2021/01/08 23:23:49;;;;;;;9.07;3.83;;;-3.40;99.90;;;;;;20973442;28;20037;-78
2021/01/08 23:33:53;;;;;;;7.60;3.78;;;-3.40;99.90;;;;;;20997984;28;20752;-77
2021/01/08 23:43:54;;;;;;;9.05;4.53;;;-3.70;99.90;;;;;;21030409;28;20040;-77
2021/01/08 23:53:55;;;;;;;9.25;3.72;;;-3.90;99.90;;;;;;21056680;28;20038;-77
